Time;durP1;ratioP1;P1;durP2;ratioP2;P2;SDS_P1;SDS_P2;PMS_P1;PMS_P2;Temp;Humidity;BMP_temperature;BMP_pressure;BME280_temperature;BME280_humidity;BME280_pressure;Samples;Min_cycle;Max_cycle;Signal;HPM_P1;HPM_P2
2023/12/11 00:00:24;;;;;;;;;;;;;;;3.60;72.02;100386.41;5488086;32;35723;-69
2023/12/11 00:03:26;;;;;;;;;;;;;;;3.59;73.49;100385.53;5490157;32;35533;-67
2023/12/11 00:06:29;;;;;;;;;;;;;;;2.88;75.38;100384.47;5496754;32;35642;-68
2023/12/11 00:09:31;;;;;;;;;;;;;;;3.84;71.97;100365.34;5482488;32;34637;-69
2023/12/11 00:12:33;;;;;;;;;;;;;;;3.76;72.85;100360.22;5499782;32;35173;-69
2023/12/11 00:15:36;;;;;;;;;;;;;;;3.33;73.88;100361.56;5485916;32;35263;-67
2023/12/11 00:18:38;;;;;;;;;;;;;;;3.55;74.13;100354.44;5490691;32;34951;-67
2023/12/11 00:21:41;;;;;;;;;;;;;;;3.97;72.05;100353.03;5490405;32;36036;-69
2023/12/11 00:24:43;;;;;;;;;;;;;;;3.35;74.60;100347.72;5482467;32;35463;-69
2023/12/11 00:27:45;;;;;;;;;;;;;;;3.40;73.27;100345.03;5498259;32;34592;-68
2023/12/11 00:30:47;;;;;;;;;;;;;;;3.32;74.77;100328.69;5487410;32;34311;-72
2023/12/11 00:33:52;;;;;;;;;;;;;;;3.79;73.05;100313.38;5493118;32;35343;-67
2023/12/11 00:36:55;;;;;;;;;;;;;;;2.93;76.30;100315.22;5490024;32;34264;-69
2023/12/11 00:39:57;;;;;;;;;;;;;;;3.36;75.66;100320.00;5493330;32;35296;-69
2023/12/11 00:43:00;;;;;;;;;;;;;;;3.78;73.43;100324.66;5494209;32;34904;-68
2023/12/11 00:46:02;;;;;;;;;;;;;;;3.77;72.62;100328.16;5489142;32;35529;-69
2023/12/11 00:49:04;;;;;;;;;;;;;;;3.62;73.40;100322.28;5490593;32;34952;-69
2023/12/11 00:52:07;;;;;;;;;;;;;;;3.15;75.30;100321.91;5494734;32;34599;-69
2023/12/11 00:55:09;;;;;;;;;;;;;;;3.32;74.70;100323.47;5490142;32;35291;-69
2023/12/11 00:58:12;;;;;;;;;;;;;;;3.63;73.42;100313.62;5486938;32;34669;-68
2023/12/11 01:01:14;;;;;;;;;;;;;;;3.52;73.30;100300.72;5489274;32;34877;-69
2023/12/11 01:04:16;;;;;;;;;;;;;;;3.32;74.97;100308.75;5487079;32;34654;-68
2023/12/11 01:07:18;;;;;;;;;;;;;;;2.58;78.55;100308.59;5490426;32;35457;-67
2023/12/11 01:10:20;;;;;;;;;;;;;;;2.46;80.69;100315.59;5491050;32;34399;-69
2023/12/11 01:13:22;;;;;;;;;;;;;;;2.70;78.26;100313.69;5484999;32;34900;-68
2023/12/11 01:16:25;;;;;;;;;;;;;;;3.22;75.34;100288.94;5475821;32;34614;-69
2023/12/11 01:19:27;;;;;;;;;;;;;;;2.99;75.53;100299.56;5481415;32;34141;-67
2023/12/11 01:22:29;;;;;;;;;;;;;;;2.41;78.37;100311.31;5492033;32;34250;-69
2023/12/11 01:25:31;;;;;;;;;;;;;;;3.08;78.72;100312.47;5495726;32;35064;-70
2023/12/11 01:28:33;;;;;;;;;;;;;;;2.71;77.87;100304.16;5481990;32;34620;-69
2023/12/11 01:31:36;;;;;;;;;;;;;;;3.22;74.87;100312.31;5485061;32;34296;-70
2023/12/11 01:34:38;;;;;;;;;;;;;;;3.31;74.95;100311.37;5483309;32;34664;-68
2023/12/11 01:37:41;;;;;;;;;;;;;;;2.21;76.69;100307.97;5495776;32;34792;-68
2023/12/11 01:40:43;;;;;;;;;;;;;;;3.01;76.71;100295.22;5486906;32;35024;-67
2023/12/11 01:43:52;;;;;;;;;;;;;;;3.09;75.88;100280.44;5480735;32;34264;-69
2023/12/11 01:46:54;;;;;;;;;;;;;;;3.24;75.54;100266.44;5484222;32;35863;-70
2023/12/11 01:49:57;;;;;;;;;;;;;;;2.57;75.94;100269.66;5485299;32;33914;-67
2023/12/11 01:52:59;;;;;;;;;;;;;;;2.74;78.12;100279.91;5496827;32;34913;-68
2023/12/11 01:56:01;;;;;;;;;;;;;;;2.00;80.47;100275.28;5489827;32;34720;-68
2023/12/11 01:59:03;;;;;;;;;;;;;;;2.87;76.13;100281.50;5490794;32;35016;-70
2023/12/11 02:02:05;;;;;;;;;;;;;;;3.01;76.66;100276.19;5495660;32;34982;-69
2023/12/11 02:05:08;;;;;;;;;;;;;;;3.35;75.03;100269.78;5482444;32;34905;-70
2023/12/11 02:08:10;;;;;;;;;;;;;;;3.12;75.68;100262.22;5495549;32;34379;-67
2023/12/11 02:11:13;;;;;;;;;;;;;;;2.85;75.00;100265.09;5490621;32;34282;-67
2023/12/11 02:14:15;;;;;;;;;;;;;;;2.63;78.27;100273.06;5489389;32;34623;-67
2023/12/11 02:17:17;;;;;;;;;;;;;;;2.41;76.57;100255.97;5492337;32;34606;-70
2023/12/11 02:20:19;;;;;;;;;;;;;;;2.28;79.73;100264.72;5499680;32;34052;-70
2023/12/11 02:23:21;;;;;;;;;;;;;;;2.97;76.65;100259.78;5487140;32;35684;-67
2023/12/11 02:26:23;;;;;;;;;;;;;;;2.94;75.20;100252.03;5490991;32;34788;-68
2023/12/11 02:29:25;;;;;;;;;;;;;;;2.68;77.10;100255.72;5501758;32;34667;-70
2023/12/11 02:32:27;;;;;;;;;;;;;;;2.67;77.19;100248.81;5497925;32;34264;-68
2023/12/11 02:35:30;;;;;;;;;;;;;;;2.87;73.92;100256.41;5497705;32;35043;-69
2023/12/11 02:38:32;;;;;;;;;;;;;;;2.27;76.82;100265.59;5483560;32;35469;-67
2023/12/11 02:41:34;;;;;;;;;;;;;;;2.47;76.54;100258.50;5493043;32;34872;-69
2023/12/11 02:44:36;;;;;;;;;;;;;;;2.30;78.70;100247.41;5484412;32;34986;-69
2023/12/11 02:47:38;;;;;;;;;;;;;;;2.41;77.82;100238.66;5488442;32;34666;-68
2023/12/11 02:50:41;;;;;;;;;;;;;;;1.76;81.40;100223.59;5488866;32;34988;-67
2023/12/11 02:53:43;;;;;;;;;;;;;;;2.97;78.50;100223.44;5489171;32;35419;-68
2023/12/11 02:56:45;;;;;;;;;;;;;;;2.88;75.63;100219.19;5494825;32;34515;-67
2023/12/11 02:59:47;;;;;;;;;;;;;;;3.29;74.20;100206.63;5484577;32;34548;-68
2023/12/11 03:02:49;;;;;;;;;;;;;;;2.71;75.26;100211.59;5494368;32;33987;-68
2023/12/11 03:05:51;;;;;;;;;;;;;;;2.92;75.65;100217.44;5484612;32;34893;-69
2023/12/11 03:08:54;;;;;;;;;;;;;;;3.33;73.16;100216.94;5489179;32;34697;-68
2023/12/11 03:11:56;;;;;;;;;;;;;;;3.46;72.34;100210.72;5495024;32;35554;-68
2023/12/11 03:14:58;;;;;;;;;;;;;;;2.85;74.25;100215.78;5483093;32;35011;-69
2023/12/11 03:18:00;;;;;;;;;;;;;;;3.37;72.42;100207.41;5490126;32;35368;-68
2023/12/11 03:21:03;;;;;;;;;;;;;;;3.21;73.35;100204.09;5479021;32;34593;-68
2023/12/11 03:24:05;;;;;;;;;;;;;;;3.01;73.90;100193.97;5491275;32;34882;-69
2023/12/11 03:27:07;;;;;;;;;;;;;;;2.62;73.90;100211.66;5496767;32;35877;-67
2023/12/11 03:30:09;;;;;;;;;;;;;;;1.82;78.50;100208.84;5485855;32;34924;-67
2023/12/11 03:33:12;;;;;;;;;;;;;;;2.37;78.92;100190.28;5495571;32;34356;-67
2023/12/11 03:36:14;;;;;;;;;;;;;;;3.29;75.12;100191.06;5490333;32;34166;-70
2023/12/11 03:39:16;;;;;;;;;;;;;;;3.03;74.90;100187.03;5503426;32;35169;-67
2023/12/11 03:42:18;;;;;;;;;;;;;;;2.16;77.36;100204.28;5482483;32;34752;-67
2023/12/11 03:45:20;;;;;;;;;;;;;;;2.59;78.54;100205.66;5488215;32;35455;-68
2023/12/11 03:48:23;;;;;;;;;;;;;;;2.32;77.33;100217.13;5492384;32;34358;-68
2023/12/11 03:51:25;;;;;;;;;;;;;;;2.11;78.65;100198.28;5475472;32;35277;-67
2023/12/11 03:54:27;;;;;;;;;;;;;;;2.69;77.36;100202.09;5491096;32;34724;-68
2023/12/11 03:57:29;;;;;;;;;;;;;;;2.49;77.53;100199.69;5490731;32;34415;-69
2023/12/11 04:00:32;;;;;;;;;;;;;;;2.75;77.85;100215.00;5488160;32;35011;-69
2023/12/11 04:03:34;;;;;;;;;;;;;;;2.89;76.24;100227.84;5490365;32;34757;-67
2023/12/11 04:06:36;;;;;;;;;;;;;;;3.08;75.57;100231.97;5491016;32;34923;-69
2023/12/11 04:09:39;;;;;;;;;;;;;;;1.98;79.12;100227.75;5487122;32;34342;-67
2023/12/11 04:12:41;;;;;;;;;;;;;;;2.63;78.70;100226.34;5489688;32;34143;-69
2023/12/11 04:15:43;;;;;;;;;;;;;;;3.35;76.00;100215.22;5486826;32;34226;-70
2023/12/11 04:18:45;;;;;;;;;;;;;;;2.40;79.91;100217.94;5491811;32;35166;-67
2023/12/11 04:21:48;;;;;;;;;;;;;;;3.92;73.90;100209.22;5493305;32;35223;-69
2023/12/11 04:24:50;;;;;;;;;;;;;;;4.49;70.00;100207.44;5490603;32;35773;-70
2023/12/11 04:27:52;;;;;;;;;;;;;;;4.20;69.77;100207.94;5491252;32;34786;-69
2023/12/11 04:30:54;;;;;;;;;;;;;;;4.33;69.64;100208.59;5502458;32;34643;-69
2023/12/11 04:33:56;;;;;;;;;;;;;;;4.28;69.47;100198.25;5500022;32;35306;-67
2023/12/11 04:36:59;;;;;;;;;;;;;;;4.05;69.56;100187.34;5483977;32;34951;-68
2023/12/11 04:40:01;;;;;;;;;;;;;;;3.91;71.66;100173.72;5484408;32;35324;-69
2023/12/11 04:43:03;;;;;;;;;;;;;;;3.29;72.80;100175.47;5496935;32;35474;-69
2023/12/11 04:46:06;;;;;;;;;;;;;;;3.98;71.34;100167.53;5489728;32;34717;-69
2023/12/11 04:49:08;;;;;;;;;;;;;;;4.28;70.34;100169.63;5490097;32;34614;-70
2023/12/11 04:52:10;;;;;;;;;;;;;;;3.44;72.27;100172.66;5498177;32;34397;-67
2023/12/11 04:55:13;;;;;;;;;;;;;;;4.07;70.88;100164.81;5486295;32;34197;-69
2023/12/11 04:58:15;;;;;;;;;;;;;;;3.87;71.70;100188.50;5495948;32;34347;-69
2023/12/11 05:01:18;;;;;;;;;;;;;;;3.86;70.34;100178.12;5491033;32;34832;-69
2023/12/11 05:04:20;;;;;;;;;;;;;;;3.98;71.29;100175.31;5490638;32;37211;-68
2023/12/11 05:07:22;;;;;;;;;;;;;;;3.63;72.52;100176.72;5480007;32;34507;-68
2023/12/11 05:10:24;;;;;;;;;;;;;;;3.04;76.06;100199.13;5488739;32;34845;-69
2023/12/11 05:13:26;;;;;;;;;;;;;;;2.64;77.14;100217.72;5484780;32;34980;-67
2023/12/11 05:16:29;;;;;;;;;;;;;;;3.54;74.24;100215.81;5479557;32;34561;-70
2023/12/11 05:19:31;;;;;;;;;;;;;;;3.79;74.14;100209.41;5482947;32;34888;-68
2023/12/11 05:22:33;;;;;;;;;;;;;;;3.60;75.00;100184.53;5480073;32;34767;-67
2023/12/11 05:25:35;;;;;;;;;;;;;;;4.07;73.73;100185.59;5484564;32;35413;-67
2023/12/11 05:28:37;;;;;;;;;;;;;;;2.69;77.45;100176.13;5474405;32;35472;-69
2023/12/11 05:31:39;;;;;;;;;;;;;;;3.33;77.30;100170.19;5487470;32;34306;-68
2023/12/11 05:34:44;;;;;;;;;;;;;;;3.58;74.72;100169.88;5488820;32;34215;-67
2023/12/11 05:37:46;;;;;;;;;;;;;;;3.89;73.10;100165.94;5491641;32;34533;-70
2023/12/11 05:40:48;;;;;;;;;;;;;;;4.14;72.36;100187.22;5485434;32;35848;-70
2023/12/11 05:43:51;;;;;;;;;;;;;;;4.08;72.20;100187.31;5487954;32;34317;-69
2023/12/11 05:46:53;;;;;;;;;;;;;;;3.67;75.28;100170.59;5486685;32;34872;-66
2023/12/11 05:49:55;;;;;;;;;;;;;;;3.92;73.12;100160.69;5499682;32;35497;-68
2023/12/11 05:52:57;;;;;;;;;;;;;;;4.28;72.97;100145.37;5499121;32;34578;-67
2023/12/11 05:55:59;;;;;;;;;;;;;;;4.64;70.60;100125.63;5503822;32;34202;-70
2023/12/11 05:59:02;;;;;;;;;;;;;;;4.40;70.68;100126.09;5499334;32;34108;-68
2023/12/11 06:02:04;;;;;;;;;;;;;;;4.19;70.04;100111.72;5503668;32;34991;-70
2023/12/11 06:05:06;;;;;;;;;;;;;;;4.00;70.89;100157.97;5497164;32;34732;-70
2023/12/11 06:08:08;;;;;;;;;;;;;;;4.14;71.66;100196.78;5501279;32;34056;-70
2023/12/11 06:11:10;;;;;;;;;;;;;;;2.96;74.69;100195.75;5484096;31;34919;-70
2023/12/11 06:14:12;;;;;;;;;;;;;;;3.41;75.83;100170.09;5497231;32;35579;-65
2023/12/11 06:17:14;;;;;;;;;;;;;;;3.66;73.85;100179.25;5499324;32;34737;-73
2023/12/11 06:20:16;;;;;;;;;;;;;;;3.55;72.95;100170.78;5496280;31;35302;-80
2023/12/11 06:23:18;;;;;;;;;;;;;;;3.88;74.38;100171.16;5488452;32;35702;-64
2023/12/11 06:26:28;;;;;;;;;;;;;;;3.81;73.48;100173.00;5495687;32;34232;-76
2023/12/11 06:29:30;;;;;;;;;;;;;;;4.38;72.69;100195.50;5487568;32;35171;-64
2023/12/11 06:32:32;;;;;;;;;;;;;;;3.37;73.04;100223.84;5477001;32;34334;-73
2023/12/11 06:35:34;;;;;;;;;;;;;;;3.05;76.87;100224.22;5487840;32;34771;-77
2023/12/11 06:38:35;;;;;;;;;;;;;;;3.33;77.44;100218.69;5486028;32;35463;-64
2023/12/11 06:41:37;;;;;;;;;;;;;;;4.10;73.51;100205.50;5465135;32;33703;-73
2023/12/11 06:44:39;;;;;;;;;;;;;;;3.99;73.60;100200.44;5487784;32;36273;-79
2023/12/11 06:47:41;;;;;;;;;;;;;;;4.07;73.24;100191.66;5465152;32;34184;-76
2023/12/11 06:50:43;;;;;;;;;;;;;;;4.70;71.83;100169.78;5487430;32;34589;-67
2023/12/11 06:53:45;;;;;;;;;;;;;;;5.05;70.43;100156.06;5451235;32;35393;-73
2023/12/11 06:56:47;;;;;;;;;;;;;;;4.42;70.13;100152.94;5451876;32;34244;-64
2023/12/11 06:59:49;;;;;;;;;;;;;;;4.72;70.85;100154.97;5472014;32;34455;-84
2023/12/11 07:02:52;;;;;;;;;;;;;;;5.12;68.92;100143.78;5484812;32;34138;-74
2023/12/11 07:05:54;;;;;;;;;;;;;;;4.94;69.78;100138.94;5480876;32;34312;-77
2023/12/11 07:08:56;;;;;;;;;;;;;;;5.27;68.04;100122.59;5481550;32;35454;-73
2023/12/11 07:11:59;;;;;;;;;;;;;;;5.10;67.65;100136.00;5490675;32;35777;-71
2023/12/11 07:15:01;;;;;;;;;;;;;;;5.13;68.71;100132.44;5484333;32;35546;-71
2023/12/11 07:18:02;;;;;;;;;;;;;;;4.64;69.75;100125.63;5462811;32;34335;-63
2023/12/11 07:21:08;;;;;;;;;;;;;;;5.08;69.26;100136.91;5483598;32;35651;-68
2023/12/11 07:24:10;;;;;;;;;;;;;;;4.87;69.79;100149.47;5482385;32;35088;-81
2023/12/11 07:27:12;;;;;;;;;;;;;;;4.69;70.62;100168.03;5485264;32;34295;-64
2023/12/11 07:30:14;;;;;;;;;;;;;;;5.09;69.96;100155.13;5483877;32;35474;-78
2023/12/11 07:33:16;;;;;;;;;;;;;;;4.28;71.00;100153.16;5475466;32;34334;-69
2023/12/11 07:36:23;;;;;;;;;;;;;;;5.29;69.46;100110.41;5483293;32;34168;-74
2023/12/11 07:39:26;;;;;;;;;;;;;;;5.13;69.58;100155.91;5471849;32;34447;-81
2023/12/11 07:42:28;;;;;;;;;;;;;;;5.36;69.53;100184.09;5484748;32;34197;-79
2023/12/11 07:45:30;;;;;;;;;;;;;;;4.94;69.39;100199.69;5487584;32;35110;-79
2023/12/11 07:48:32;;;;;;;;;;;;;;;4.41;73.44;100200.66;5475644;32;35512;-84
2023/12/11 07:51:34;;;;;;;;;;;;;;;4.94;71.65;100176.25;5470931;32;34342;-80
2023/12/11 07:54:39;;;;;;;;;;;;;;;4.92;71.49;100161.56;5487695;32;34283;-85
2023/12/11 07:57:41;;;;;;;;;;;;;;;4.37;72.15;100165.16;5480876;32;34993;-74
2023/12/11 08:00:43;;;;;;;;;;;;;;;4.66;71.71;100157.69;5483984;32;34170;-73
2023/12/11 08:03:46;;;;;;;;;;;;;;;5.53;69.83;100142.00;5484830;32;35574;-70
2023/12/11 08:06:50;;;;;;;;;;;;;;;5.84;67.97;100132.59;5484556;32;35489;-69
2023/12/11 08:09:52;;;;;;;;;;;;;;;5.87;66.75;100119.50;5486290;32;33329;-67
2023/12/11 08:12:54;;;;;;;;;;;;;;;5.30;68.42;100125.16;5476864;32;34211;-72
2023/12/11 08:15:56;;;;;;;;;;;;;;;4.84;69.75;100128.72;5486867;32;34263;-65
2023/12/11 08:18:58;;;;;;;;;;;;;;;4.45;71.16;100127.72;5488843;32;34067;-78
2023/12/11 08:22:00;;;;;;;;;;;;;;;5.37;70.21;100126.72;5485319;32;34235;-78
2023/12/11 08:25:03;;;;;;;;;;;;;;;5.07;70.16;100093.50;5481341;32;35477;-74
2023/12/11 08:28:06;;;;;;;;;;;;;;;5.52;68.34;100090.78;5473159;32;36620;-79
2023/12/11 08:31:08;;;;;;;;;;;;;;;5.48;68.23;100076.12;5488704;32;34043;-66
2023/12/11 08:34:10;;;;;;;;;;;;;;;4.98;69.51;100065.91;5483526;32;34584;-77
2023/12/11 08:37:12;;;;;;;;;;;;;;;5.32;68.31;100050.37;5483791;32;33516;-75
2023/12/11 08:40:15;;;;;;;;;;;;;;;5.42;67.71;100048.44;5483446;32;34364;-77
2023/12/11 08:43:17;;;;;;;;;;;;;;;5.26;68.89;100047.06;5480201;32;34197;-63
2023/12/11 08:46:20;;;;;;;;;;;;;;;4.15;73.72;100071.88;5477433;32;34214;-64
2023/12/11 08:49:22;;;;;;;;;;;;;;;4.60;73.94;100085.78;5474748;32;35397;-74
2023/12/11 08:52:24;;;;;;;;;;;;;;;4.94;72.62;100076.41;5484993;32;35565;-78
2023/12/11 08:55:27;;;;;;;;;;;;;;;5.22;70.37;100071.50;5474470;32;34757;-76
2023/12/11 08:58:31;;;;;;;;;;;;;;;5.79;69.42;100079.69;5485843;32;34323;-63
2023/12/11 09:01:35;;;;;;;;;;;;;;;5.83;66.50;100089.16;5489877;32;37464;-77
2023/12/11 09:04:37;;;;;;;;;;;;;;;4.91;70.77;100102.53;5482067;32;34637;-74
2023/12/11 09:07:39;;;;;;;;;;;;;;;5.53;69.89;100089.88;5485806;32;34693;-64
2023/12/11 09:10:41;;;;;;;;;;;;;;;4.60;71.13;100069.31;5473778;32;35580;-65
2023/12/11 09:13:45;;;;;;;;;;;;;;;5.87;69.39;100071.69;5488688;32;35424;-74
2023/12/11 09:16:47;;;;;;;;;;;;;;;6.08;67.98;100059.88;5482187;32;34916;-77
2023/12/11 09:19:49;;;;;;;;;;;;;;;6.67;64.94;100052.19;5480834;32;35267;-67
2023/12/11 09:22:57;;;;;;;;;;;;;;;6.77;63.98;100051.03;5484074;32;34363;-75
2023/12/11 09:26:00;;;;;;;;;;;;;;;6.32;64.76;100061.84;5484344;32;33992;-76
2023/12/11 09:29:02;;;;;;;;;;;;;;;5.90;65.89;100067.25;5487646;32;34253;-67
2023/12/11 09:32:04;;;;;;;;;;;;;;;6.55;64.25;100058.59;5484653;32;34467;-71
2023/12/11 09:35:07;;;;;;;;;;;;;;;6.12;65.36;100051.09;5479916;32;34642;-78
2023/12/11 09:38:10;;;;;;;;;;;;;;;6.39;63.34;100045.13;5484007;32;34482;-69
2023/12/11 09:41:12;;;;;;;;;;;;;;;6.13;65.58;100058.00;5480653;32;34003;-67
2023/12/11 09:44:15;;;;;;;;;;;;;;;6.20;65.79;100042.16;5482555;32;35192;-64
2023/12/11 09:47:24;;;;;;;;;;;;;;;6.22;66.44;100037.75;5470695;32;34214;-65
2023/12/11 09:50:26;;;;;;;;;;;;;;;6.77;64.17;100035.34;5486701;32;36514;-68
2023/12/11 09:53:30;;;;;;;;;;;;;;;6.82;63.43;100032.59;5477048;32;34254;-68
2023/12/11 09:56:32;;;;;;;;;;;;;;;6.62;64.09;100047.06;5481529;32;34117;-78
2023/12/11 09:59:34;;;;;;;;;;;;;;;6.40;65.07;100041.59;5473021;32;34200;-69
2023/12/11 10:02:37;;;;;;;;;;;;;;;6.56;65.14;100041.16;5470196;32;34918;-66
2023/12/11 10:05:40;;;;;;;;;;;;;;;6.46;64.41;100041.44;5485156;32;34206;-67
2023/12/11 10:08:42;;;;;;;;;;;;;;;7.09;63.50;100044.00;5469174;32;35232;-66
2023/12/11 10:11:49;;;;;;;;;;;;;;;7.32;61.28;100039.75;5483907;32;34610;-69
2023/12/11 10:14:59;;;;;;;;;;;;;;;7.33;61.76;100038.00;5483452;32;36719;-74
2023/12/11 10:18:08;;;;;;;;;;;;;;;6.30;64.40;100032.31;5485390;32;34213;-67
2023/12/11 10:21:10;;;;;;;;;;;;;;;7.48;61.32;100021.00;5453231;32;943304;-75
2023/12/11 10:24:14;;;;;;;;;;;;;;;7.74;60.56;100023.59;5486838;32;34154;-78
2023/12/11 10:27:21;;;;;;;;;;;;;;;7.26;59.35;100005.97;5487035;32;34849;-90
2023/12/11 10:30:23;;;;;;;;;;;;;;;6.40;64.69;100015.50;5486550;32;35113;-72
2023/12/11 10:33:26;;;;;;;;;;;;;;;7.44;61.79;100008.91;5482546;32;34047;-74
2023/12/11 10:36:31;;;;;;;;;;;;;;;6.39;64.31;100016.41;5475172;32;34877;-76
2023/12/11 10:39:33;;;;;;;;;;;;;;;6.93;62.65;100010.47;5479751;32;33911;-72
2023/12/11 10:42:39;;;;;;;;;;;;;;;6.63;63.27;99999.16;5488440;32;34726;-77
2023/12/11 10:45:44;;;;;;;;;;;;;;;6.77;64.08;99993.56;5475530;32;33402;-67
2023/12/11 10:48:53;;;;;;;;;;;;;;;8.00;59.33;99983.47;5489819;32;34266;-71
2023/12/11 10:51:56;;;;;;;;;;;;;;;6.72;62.27;99969.34;5464149;32;34672;-72
2023/12/11 10:54:58;;;;;;;;;;;;;;;8.01;59.51;99959.00;5484559;32;34085;-67
2023/12/11 10:58:01;;;;;;;;;;;;;;;7.97;59.35;99953.91;5453181;32;36634;-70
2023/12/11 11:01:05;;;;;;;;;;;;;;;7.27;61.35;99980.69;5472943;32;34450;-70
2023/12/11 11:04:09;;;;;;;;;;;;;;;7.30;60.87;99991.06;5479456;32;35360;-68
2023/12/11 11:07:11;;;;;;;;;;;;;;;7.01;62.19;99989.34;5473596;32;34308;-71
2023/12/11 11:10:20;;;;;;;;;;;;;;;5.88;65.53;99996.00;5483710;32;32970;-72
2023/12/11 11:13:24;;;;;;;;;;;;;;;6.39;65.20;99987.69;5479619;32;35360;-71
2023/12/11 11:16:45;;;;;;;;;;;;;;;6.57;64.60;99975.88;5478572;32;34720;-70
2023/12/11 11:20:07;;;;;;;;;;;;;;;7.75;60.82;99959.06;5488080;32;34820;-70
2023/12/11 11:23:18;;;;;;;;;;;;;;;8.29;58.88;99955.37;5478652;32;34659;-71
2023/12/11 11:26:30;;;;;;;;;;;;;;;9.03;55.68;99941.22;5480650;32;36063;-69
2023/12/11 11:29:42;;;;;;;;;;;;;;;8.03;57.74;99940.63;5480677;32;35360;-68
2023/12/11 11:32:52;;;;;;;;;;;;;;;7.55;59.94;99923.97;5482889;32;34580;-72
2023/12/11 11:35:54;;;;;;;;;;;;;;;8.94;57.06;99923.22;5489028;32;35514;-71
2023/12/11 11:38:57;;;;;;;;;;;;;;;8.89;57.24;99901.63;5471893;32;34280;-69
2023/12/11 11:41:59;;;;;;;;;;;;;;;8.48;57.59;99880.50;5487668;32;34770;-73
2023/12/11 11:45:02;;;;;;;;;;;;;;;9.83;54.95;99882.81;5474287;32;34367;-71
2023/12/11 11:48:04;;;;;;;;;;;;;;;9.17;56.08;99881.22;5488632;32;34753;-73
2023/12/11 11:51:09;;;;;;;;;;;;;;;10.66;51.48;99872.03;5492457;32;34447;-71
2023/12/11 11:54:11;;;;;;;;;;;;;;;10.66;50.43;99877.28;5485164;32;34784;-69
2023/12/11 11:57:13;;;;;;;;;;;;;;;10.54;50.92;99870.81;5486285;32;34052;-68
2023/12/11 12:00:22;;;;;;;;;;;;;;;10.09;52.29;99879.00;5471570;32;34742;-70
2023/12/11 12:03:24;;;;;;;;;;;;;;;8.98;55.95;99877.66;5489028;32;34720;-68
2023/12/11 12:06:26;;;;;;;;;;;;;;;9.92;54.06;99888.50;5487242;32;34953;-70
2023/12/11 12:09:29;;;;;;;;;;;;;;;10.93;52.39;99885.63;5488985;32;34118;-72
2023/12/11 12:12:33;;;;;;;;;;;;;;;12.31;49.11;99869.75;5473107;32;35016;-73
2023/12/11 12:15:42;;;;;;;;;;;;;;;15.36;40.77;99863.53;5490611;32;35985;-69
2023/12/11 12:18:48;;;;;;;;;;;;;;;12.20;47.06;99875.59;5486120;32;34809;-69
2023/12/11 12:21:56;;;;;;;;;;;;;;;12.33;45.66;99896.84;5486294;32;35311;-69
2023/12/11 12:24:58;;;;;;;;;;;;;;;12.50;45.82;99903.88;5479242;32;34692;-68
2023/12/11 12:28:00;;;;;;;;;;;;;;;11.05;49.13;99903.44;5488822;32;35387;-70
2023/12/11 12:31:02;;;;;;;;;;;;;;;10.61;50.94;99908.19;5489130;32;35032;-71
2023/12/11 12:34:04;;;;;;;;;;;;;;;10.14;52.96;99904.16;5476940;32;34176;-73
2023/12/11 12:37:07;;;;;;;;;;;;;;;11.90;48.09;99879.84;5482961;32;35011;-72
2023/12/11 12:40:09;;;;;;;;;;;;;;;12.47;45.67;99885.56;5482400;32;34729;-70
2023/12/11 12:43:12;;;;;;;;;;;;;;;12.06;45.95;99901.81;5482744;32;34161;-72
2023/12/11 12:46:15;;;;;;;;;;;;;;;11.33;48.55;99902.91;5484192;32;34839;-67
2023/12/11 12:49:17;;;;;;;;;;;;;;;10.28;51.02;99883.38;5477259;32;35110;-69
2023/12/11 12:52:23;;;;;;;;;;;;;;;10.77;49.43;99893.41;5501178;32;35555;-70
2023/12/11 12:55:29;;;;;;;;;;;;;;;9.91;51.52;99906.94;5500059;32;34069;-69
2023/12/11 12:58:32;;;;;;;;;;;;;;;9.89;51.70;99904.38;5467491;32;34351;-72
2023/12/11 13:01:38;;;;;;;;;;;;;;;7.97;56.85;99912.03;5488740;32;35040;-70
2023/12/11 13:04:49;;;;;;;;;;;;;;;8.70;55.72;99892.78;5475066;32;34442;-70
2023/12/11 13:07:56;;;;;;;;;;;;;;;9.33;54.39;99851.72;5481500;32;34419;-67
2023/12/11 13:10:58;;;;;;;;;;;;;;;9.09;55.03;99844.00;5484908;32;35250;-67
2023/12/11 13:14:02;;;;;;;;;;;;;;;9.07;55.01;99860.69;5499051;32;35521;-70
2023/12/11 13:17:04;;;;;;;;;;;;;;;8.47;56.46;99891.03;5498887;31;34378;-72
2023/12/11 13:20:07;;;;;;;;;;;;;;;9.08;54.22;99888.59;5471026;32;34278;-71
2023/12/11 13:23:09;;;;;;;;;;;;;;;8.91;54.96;99886.69;5489558;32;34973;-72
2023/12/11 13:26:11;;;;;;;;;;;;;;;7.96;58.30;99898.09;5474358;32;35483;-68
2023/12/11 13:29:13;;;;;;;;;;;;;;;8.06;58.64;99903.88;5474358;32;35239;-69
2023/12/11 13:32:15;;;;;;;;;;;;;;;8.04;58.60;99909.16;5491096;32;35048;-67
2023/12/11 13:35:18;;;;;;;;;;;;;;;8.19;57.80;99914.75;5472361;32;35309;-70
2023/12/11 13:38:20;;;;;;;;;;;;;;;8.00;58.65;99922.41;5473246;32;34184;-72
2023/12/11 13:41:22;;;;;;;;;;;;;;;8.03;58.75;99906.59;5486939;32;34235;-68
2023/12/11 13:44:24;;;;;;;;;;;;;;;8.39;57.92;99899.19;5485900;32;34927;-70
2023/12/11 13:47:26;;;;;;;;;;;;;;;8.28;57.96;99902.16;5491297;32;34284;-70
2023/12/11 13:50:29;;;;;;;;;;;;;;;8.41;57.42;99906.06;5471910;32;34313;-70
2023/12/11 13:53:31;;;;;;;;;;;;;;;8.76;56.21;99914.34;5494026;32;34670;-68
2023/12/11 13:56:33;;;;;;;;;;;;;;;7.70;60.53;99919.97;5488108;32;35490;-72
2023/12/11 13:59:35;;;;;;;;;;;;;;;7.44;62.22;99915.63;5478135;32;35476;-67
2023/12/11 14:02:37;;;;;;;;;;;;;;;6.73;65.23;99917.03;5485253;32;34878;-68
2023/12/11 14:05:59;;;;;;;;;;;;;;;6.64;66.11;99924.31;5475546;32;35806;-71
2023/12/11 14:09:03;;;;;;;;;;;;;;;6.42;66.67;99917.09;5493793;32;34773;-67
2023/12/11 14:12:05;;;;;;;;;;;;;;;5.62;69.19;99907.19;5471228;32;34476;-72
2023/12/11 14:15:10;;;;;;;;;;;;;;;5.68;69.29;99909.63;5486620;32;35408;-72
2023/12/11 14:18:13;;;;;;;;;;;;;;;5.57;70.29;99904.69;5481415;32;34911;-70
2023/12/11 14:21:17;;;;;;;;;;;;;;;5.74;70.13;99893.81;5472176;32;35535;-69
2023/12/11 14:24:19;;;;;;;;;;;;;;;6.16;67.82;99897.00;5472120;32;35549;-72
2023/12/11 14:27:22;;;;;;;;;;;;;;;5.16;70.99;99911.81;5482526;32;34749;-68
2023/12/11 14:30:25;;;;;;;;;;;;;;;5.71;70.01;99930.38;5473508;32;35137;-72
2023/12/11 14:33:27;;;;;;;;;;;;;;;5.67;71.01;99928.78;5490893;32;36137;-71
2023/12/11 14:36:29;;;;;;;;;;;;;;;5.79;69.53;99922.34;5472511;32;35487;-69
2023/12/11 14:39:31;;;;;;;;;;;;;;;5.33;71.78;99903.56;5482799;32;34423;-70
2023/12/11 14:42:33;;;;;;;;;;;;;;;6.44;67.08;99898.78;5486547;32;35374;-69
2023/12/11 14:45:36;;;;;;;;;;;;;;;6.52;66.48;99894.22;5473780;32;34707;-69
2023/12/11 14:48:41;;;;;;;;;;;;;;;5.63;69.45;99891.47;5485825;31;35051;-71
2023/12/11 14:51:43;;;;;;;;;;;;;;;6.21;67.00;99871.63;5489089;32;35278;-71
2023/12/11 14:54:47;;;;;;;;;;;;;;;6.64;65.36;99869.47;5471843;32;36568;-70
2023/12/11 14:57:50;;;;;;;;;;;;;;;6.81;64.62;99855.87;5486454;32;34158;-72
2023/12/11 15:00:53;;;;;;;;;;;;;;;6.56;64.96;99868.84;5496588;32;34182;-72
2023/12/11 15:04:00;;;;;;;;;;;;;;;6.24;66.00;99855.84;5502389;32;35287;-68
2023/12/11 15:07:04;;;;;;;;;;;;;;;6.28;65.81;99861.84;5489837;32;34889;-71
2023/12/11 15:10:08;;;;;;;;;;;;;;;6.42;65.82;99862.28;5460085;32;34990;-70
2023/12/11 15:13:10;;;;;;;;;;;;;;;6.00;67.62;99859.22;5478563;32;34808;-69
2023/12/11 15:16:13;;;;;;;;;;;;;;;6.10;66.59;99865.84;5496776;31;34874;-73
2023/12/11 15:19:15;;;;;;;;;;;;;;;5.96;66.83;99883.66;5492175;32;34366;-70
2023/12/11 15:22:17;;;;;;;;;;;;;;;6.01;67.90;99891.38;5487231;32;34503;-72
2023/12/11 15:25:19;;;;;;;;;;;;;;;4.99;70.81;99889.66;5475152;32;34434;-72
2023/12/11 15:28:21;;;;;;;;;;;;;;;4.77;73.84;99891.94;5493077;32;34376;-68
2023/12/11 15:31:23;;;;;;;;;;;;;;;4.34;74.88;99898.94;5487469;32;34849;-73
2023/12/11 15:34:25;;;;;;;;;;;;;;;4.93;73.94;99892.41;5477587;32;35836;-72
2023/12/11 15:37:30;;;;;;;;;;;;;;;4.98;73.62;99880.16;5486858;32;34785;-68
2023/12/11 15:40:32;;;;;;;;;;;;;;;5.02;72.20;99898.25;5489697;32;35155;-68
2023/12/11 15:43:34;;;;;;;;;;;;;;;5.40;71.18;99899.03;5474797;32;34726;-69
2023/12/11 15:46:39;;;;;;;;;;;;;;;5.53;71.01;99881.34;5475612;32;35398;-70
2023/12/11 15:49:41;;;;;;;;;;;;;;;4.85;72.63;99885.66;5475581;32;35397;-73
2023/12/11 15:52:43;;;;;;;;;;;;;;;5.40;71.90;99899.91;5488754;32;34240;-71
2023/12/11 15:55:45;;;;;;;;;;;;;;;4.92;71.15;99888.97;5491963;32;34338;-70